Time,TemperatureF,DewpointF,PressureIn,WindDirection,WindDirectionDegrees,WindSpeedMPH,WindSpeedGustMPH,Humidity,HourlyPrecipIn,Conditions,Clouds,dailyrainin,SolarRadiationWatts/m^2,SoftwareType,DateUTC
2013-07-23 00:02:00,59.0,53.0,-100.00,NNW,348,5.0,11.0,81,0.00,,,0.00,0.000000,,2013-07-23 05:02:00,
2013-07-23 00:11:00,59.0,53.0,-100.00,NNW,348,5.0,11.0,81,0.00,,,0.00,0.000000,,2013-07-23 05:11:00,
2013-07-23 00:22:00,59.0,53.0,-100.00,NNW,348,5.0,11.0,81,0.00,,,0.00,0.000000,,2013-07-23 05:22:00,
2013-07-23 00:33:00,59.0,53.0,-100.00,NNW,348,5.0,11.0,81,0.00,,,0.00,0.000000,,2013-07-23 05:33:00,
2013-07-23 01:01:00,57.0,52.0,-100.00,North,350,3.0,7.0,82,0.00,,,0.00,0.000000,,2013-07-23 06:01:00,
2013-07-23 01:11:00,57.0,52.0,-100.00,North,350,3.0,7.0,82,0.00,,,0.00,0.000000,,2013-07-23 06:11:00,
2013-07-23 01:22:00,57.0,52.0,-100.00,North,350,3.0,7.0,82,0.00,,,0.00,0.000000,,2013-07-23 06:22:00,
2013-07-23 01:33:00,57.0,52.0,-100.00,North,350,3.0,7.0,82,0.00,,,0.00,0.000000,,2013-07-23 06:33:00,
2013-07-23 02:01:00,54.0,51.0,-100.00,SSW,194,2.0,4.0,89,0.00,,,0.00,0.000000,,2013-07-23 07:01:00,
2013-07-23 02:12:00,54.0,51.0,-100.00,SSW,194,2.0,4.0,89,0.00,,,0.00,0.000000,,2013-07-23 07:12:00,
2013-07-23 02:22:00,54.0,51.0,-100.00,SSW,194,2.0,4.0,89,0.00,,,0.00,0.000000,,2013-07-23 07:22:00,
2013-07-23 02:33:00,54.0,51.0,-100.00,SSW,194,2.0,4.0,89,0.00,,,0.00,0.000000,,2013-07-23 07:33:00,
2013-07-23 03:01:00,54.0,52.0,-100.00,West,266,2.0,6.0,92,0.00,,,0.00,0.000000,,2013-07-23 08:01:00,
2013-07-23 03:11:00,54.0,52.0,-100.00,West,266,2.0,6.0,92,0.00,,,0.00,0.000000,,2013-07-23 08:11:00,
2013-07-23 03:22:00,54.0,52.0,-100.00,West,266,2.0,6.0,92,0.00,,,0.00,0.000000,,2013-07-23 08:22:00,
2013-07-23 03:33:00,54.0,52.0,-100.00,West,266,2.0,6.0,92,0.00,,,0.00,0.000000,,2013-07-23 08:33:00,
2013-07-23 04:01:00,57.0,52.0,-100.00,North,349,6.0,12.0,82,0.00,,,0.00,0.000000,,2013-07-23 09:01:00,
2013-07-23 04:11:00,57.0,52.0,-100.00,North,349,6.0,12.0,82,0.00,,,0.00,0.000000,,2013-07-23 09:11:00,
2013-07-23 04:22:00,57.0,52.0,-100.00,North,349,6.0,12.0,82,0.00,,,0.00,0.000000,,2013-07-23 09:22:00,
2013-07-23 04:33:00,57.0,52.0,-100.00,North,349,6.0,12.0,82,0.00,,,0.00,0.000000,,2013-07-23 09:33:00,
2013-07-23 05:02:00,54.0,47.0,-100.00,North,2,8.0,18.0,76,0.00,,,0.00,0.000000,,2013-07-23 10:02:00,
2013-07-23 05:11:00,54.0,47.0,-100.00,North,2,8.0,18.0,76,0.00,,,0.00,0.000000,,2013-07-23 10:11:00,
2013-07-23 05:22:00,54.0,47.0,-100.00,North,2,8.0,18.0,76,0.00,,,0.00,0.000000,,2013-07-23 10:22:00,
2013-07-23 05:32:00,54.0,47.0,-100.00,North,2,8.0,18.0,76,0.00,,,0.00,0.000000,,2013-07-23 10:32:00,
2013-07-23 06:02:00,52.0,46.0,-100.00,North,8,5.0,11.0,81,0.00,,,0.00,2.000000,,2013-07-23 11:02:00,
2013-07-23 06:12:00,52.0,46.0,-100.00,North,8,5.0,11.0,81,0.00,,,0.00,2.000000,,2013-07-23 11:12:00,
2013-07-23 06:22:00,52.0,46.0,-100.00,North,8,5.0,11.0,81,0.00,,,0.00,2.000000,,2013-07-23 11:22:00,
2013-07-23 06:32:00,52.0,46.0,-100.00,North,8,5.0,11.0,81,0.00,,,0.00,2.000000,,2013-07-23 11:32:00,
2013-07-23 07:02:00,53.0,47.0,-100.00,North,357,7.0,14.0,79,0.00,,,0.00,25.000000,,2013-07-23 12:02:00,
2013-07-23 07:11:00,53.0,47.0,-100.00,North,357,7.0,14.0,79,0.00,,,0.00,25.000000,,2013-07-23 12:11:00,
2013-07-23 07:22:00,53.0,47.0,-100.00,North,357,7.0,14.0,79,0.00,,,0.00,25.000000,,2013-07-23 12:22:00,
2013-07-23 07:33:00,53.0,47.0,-100.00,North,357,7.0,14.0,79,0.00,,,0.00,25.000000,,2013-07-23 12:33:00,
2013-07-23 08:01:00,54.0,47.0,-100.00,NNE,12,7.0,14.0,77,0.00,,,0.00,72.000000,,2013-07-23 13:01:00,
2013-07-23 08:11:00,54.0,47.0,-100.00,NNE,12,7.0,14.0,77,0.00,,,0.00,72.000000,,2013-07-23 13:11:00,
2013-07-23 08:22:00,54.0,47.0,-100.00,NNE,12,7.0,14.0,77,0.00,,,0.00,72.000000,,2013-07-23 13:22:00,
2013-07-23 08:32:00,54.0,47.0,-100.00,NNE,12,7.0,14.0,77,0.00,,,0.00,72.000000,,2013-07-23 13:32:00,
2013-07-23 09:02:00,56.0,48.0,-100.00,North,10,8.0,16.0,74,0.00,,,0.00,142.000000,,2013-07-23 14:02:00,
2013-07-23 09:12:00,56.0,48.0,-100.00,North,10,8.0,16.0,74,0.00,,,0.00,142.000000,,2013-07-23 14:12:00,
2013-07-23 09:22:00,56.0,48.0,-100.00,North,10,8.0,16.0,74,0.00,,,0.00,142.000000,,2013-07-23 14:22:00,
2013-07-23 09:32:00,56.0,48.0,-100.00,North,10,8.0,16.0,74,0.00,,,0.00,142.000000,,2013-07-23 14:32:00,
2013-07-23 10:03:00,58.0,45.0,-100.00,NNE,26,9.0,21.0,63,0.00,,,0.00,401.000000,,2013-07-23 15:03:00,
2013-07-23 10:11:00,58.0,45.0,-100.00,NNE,26,9.0,21.0,63,0.00,,,0.00,401.000000,,2013-07-23 15:11:00,
2013-07-23 10:24:00,58.0,45.0,-100.00,NNE,26,9.0,21.0,63,0.00,,,0.00,401.000000,,2013-07-23 15:24:00,
2013-07-23 10:32:00,58.0,45.0,-100.00,NNE,26,9.0,21.0,63,0.00,,,0.00,401.000000,,2013-07-23 15:32:00,
2013-07-23 11:01:00,58.0,46.0,-100.00,NNE,13,8.0,19.0,65,0.00,,,0.00,600.000000,,2013-07-23 16:01:00,
2013-07-23 11:12:00,58.0,46.0,-100.00,NNE,13,8.0,19.0,65,0.00,,,0.00,600.000000,,2013-07-23 16:12:00,
2013-07-23 11:22:00,58.0,46.0,-100.00,NNE,13,8.0,19.0,65,0.00,,,0.00,600.000000,,2013-07-23 16:22:00,
2013-07-23 11:33:00,58.0,46.0,-100.00,NNE,13,8.0,19.0,65,0.00,,,0.00,600.000000,,2013-07-23 16:33:00,
2013-07-23 12:02:00,59.0,46.0,-100.00,NNE,15,8.0,16.0,63,0.00,,,0.00,554.000000,,2013-07-23 17:02:00,
2013-07-23 12:11:00,59.0,46.0,-100.00,NNE,15,8.0,16.0,63,0.00,,,0.00,554.000000,,2013-07-23 17:11:00,
2013-07-23 12:22:00,59.0,46.0,-100.00,NNE,15,8.0,16.0,63,0.00,,,0.00,554.000000,,2013-07-23 17:22:00,
2013-07-23 12:32:00,59.0,46.0,-100.00,NNE,15,8.0,16.0,63,0.00,,,0.00,554.000000,,2013-07-23 17:32:00,
2013-07-23 13:04:00,61.0,47.0,-100.00,NE,36,10.0,18.0,59,0.00,,,-99.99,637.000000,,2013-07-23 18:04:00,
2013-07-23 13:12:00,61.0,47.0,-100.00,NE,36,10.0,18.0,59,0.00,,,-99.99,637.000000,,2013-07-23 18:12:00,
2013-07-23 13:24:00,61.0,47.0,-100.00,NE,36,10.0,18.0,59,0.00,,,-99.99,637.000000,,2013-07-23 18:24:00,
2013-07-23 13:34:00,61.0,47.0,-100.00,NE,36,10.0,18.0,59,0.00,,,-99.99,637.000000,,2013-07-23 18:34:00,
2013-07-23 14:03:00,62.0,46.0,-100.00,North,1,10.0,19.0,55,0.00,,,0.00,795.000000,,2013-07-23 19:03:00,
2013-07-23 14:15:00,62.0,46.0,-100.00,North,1,10.0,19.0,55,0.00,,,0.00,795.000000,,2013-07-23 19:15:00,
2013-07-23 14:26:00,62.0,46.0,-100.00,North,1,10.0,19.0,55,0.00,,,0.00,795.000000,,2013-07-23 19:26:00,
2013-07-23 14:33:00,62.0,46.0,-100.00,North,1,10.0,19.0,55,0.00,,,0.00,795.000000,,2013-07-23 19:33:00,
2013-07-23 15:06:00,63.0,46.0,-100.00,NNE,24,9.0,17.0,53,0.00,,,0.00,1036.000000,,2013-07-23 20:06:00,
2013-07-23 15:13:00,63.0,46.0,-100.00,NNE,24,9.0,17.0,53,0.00,,,0.00,1036.000000,,2013-07-23 20:13:00,
2013-07-23 15:23:00,63.0,46.0,-100.00,NNE,24,9.0,17.0,53,0.00,,,0.00,1036.000000,,2013-07-23 20:23:00,
2013-07-23 15:34:00,63.0,46.0,-100.00,NNE,24,9.0,17.0,53,0.00,,,0.00,1036.000000,,2013-07-23 20:34:00,
2013-07-23 16:04:00,63.0,45.0,-100.00,NNE,28,9.0,20.0,51,0.00,,,0.00,902.000000,,2013-07-23 21:04:00,
2013-07-23 16:14:00,63.0,45.0,-100.00,NNE,28,9.0,20.0,51,0.00,,,0.00,902.000000,,2013-07-23 21:14:00,
2013-07-23 16:23:00,63.0,45.0,-100.00,NNE,28,9.0,20.0,51,0.00,,,0.00,902.000000,,2013-07-23 21:23:00,
2013-07-23 16:36:00,63.0,45.0,-100.00,NNE,28,9.0,20.0,51,0.00,,,0.00,902.000000,,2013-07-23 21:36:00,
2013-07-23 17:05:00,65.0,45.0,-100.00,NNE,29,9.0,17.0,48,0.00,,,0.00,813.000000,,2013-07-23 22:05:00,
2013-07-23 17:12:00,65.0,45.0,-100.00,NNE,29,9.0,17.0,48,0.00,,,0.00,813.000000,,2013-07-23 22:12:00,
2013-07-23 17:24:00,65.0,45.0,-100.00,NNE,29,9.0,17.0,48,0.00,,,0.00,813.000000,,2013-07-23 22:24:00,
2013-07-23 17:34:00,65.0,45.0,-100.00,NNE,29,9.0,17.0,48,0.00,,,0.00,813.000000,,2013-07-23 22:34:00,
2013-07-23 18:06:00,65.0,45.0,-100.00,North,9,8.0,15.0,48,0.00,,,0.00,536.000000,,2013-07-23 23:06:00,
2013-07-23 18:13:00,65.0,45.0,-100.00,North,9,8.0,15.0,48,0.00,,,0.00,536.000000,,2013-07-23 23:13:00,
2013-07-23 18:24:00,65.0,45.0,-100.00,North,9,8.0,15.0,48,0.00,,,0.00,536.000000,,2013-07-23 23:24:00,
2013-07-23 18:35:00,65.0,45.0,-100.00,North,9,8.0,15.0,48,0.00,,,0.00,536.000000,,2013-07-23 23:35:00,
2013-07-23 19:14:00,65.0,46.0,-100.00,North,1,7.0,13.0,51,0.00,,,0.00,407.000000,,2013-07-24 00:14:00,
2013-07-23 19:26:00,65.0,46.0,-100.00,North,1,7.0,13.0,51,0.00,,,0.00,407.000000,,2013-07-24 00:26:00,
2013-07-23 19:34:00,65.0,46.0,-100.00,North,1,7.0,13.0,51,0.00,,,0.00,407.000000,,2013-07-24 00:34:00,
2013-07-23 20:04:00,64.0,47.0,-100.00,NNE,31,4.0,11.0,54,0.00,,,0.00,256.000000,,2013-07-24 01:04:00,
2013-07-23 20:24:00,64.0,47.0,-100.00,NNE,31,4.0,11.0,54,0.00,,,0.00,256.000000,,2013-07-24 01:24:00,
2013-07-23 20:33:00,64.0,47.0,-100.00,NNE,31,4.0,11.0,54,0.00,,,0.00,256.000000,,2013-07-24 01:33:00,
2013-07-23 20:37:00,56.0,49.0,-100.00,SW,228,1.0,3.0,78,0.00,,,0.00,65.000000,,2013-07-24 01:37:00,
2013-07-23 21:05:00,56.0,49.0,-100.00,SW,228,1.0,3.0,78,0.00,,,0.00,65.000000,,2013-07-24 02:05:00,
2013-07-23 21:17:00,56.0,49.0,-100.00,SW,228,1.0,3.0,78,0.00,,,0.00,65.000000,,2013-07-24 02:17:00,
2013-07-23 21:27:00,56.0,49.0,-100.00,SW,228,1.0,3.0,78,0.00,,,0.00,65.000000,,2013-07-24 02:27:00,
2013-07-23 21:37:00,51.0,49.0,-100.00,SSE,162,0.0,2.0,92,0.00,,,0.00,1.000000,,2013-07-24 02:37:00,
2013-07-23 22:04:00,51.0,49.0,-100.00,SSE,162,0.0,2.0,92,0.00,,,0.00,1.000000,,2013-07-24 03:04:00,
2013-07-23 22:13:00,51.0,49.0,-100.00,SSE,162,0.0,2.0,92,0.00,,,0.00,1.000000,,2013-07-24 03:13:00,
2013-07-23 22:24:00,51.0,49.0,-100.00,SSE,162,0.0,2.0,92,0.00,,,0.00,1.000000,,2013-07-24 03:24:00,
2013-07-23 23:01:00,48.0,47.0,-100.00,South,169,0.0,0.0,97,0.00,,,0.00,0.000000,,2013-07-24 04:01:00,
2013-07-23 23:11:00,48.0,47.0,-100.00,South,169,0.0,0.0,97,0.00,,,0.00,0.000000,,2013-07-24 04:11:00,
2013-07-23 23:22:00,48.0,47.0,-100.00,South,169,0.0,0.0,97,0.00,,,0.00,0.000000,,2013-07-24 04:22:00,
2013-07-23 23:32:00,48.0,47.0,-100.00,South,169,0.0,0.0,97,0.00,,,0.00,0.000000,,2013-07-24 04:32:00,